sensor_id;sensor_type;location;lat;lon;timestamp;P1;P2;P0
71858;PMS5003;59713;50.866;4.324;2023-08-06T00:00:01;3;2;
71858;PMS5003;59713;50.866;4.324;2023-08-06T00:01:01;1;1;
71858;PMS5003;59713;50.866;4.324;2023-08-06T00:02:01;1;1;
71858;PMS5003;59713;50.866;4.324;2023-08-06T00:02:01;1;1;
71858;PMS5003;59713;50.866;4.324;2023-08-06T00:03:01;1;1;
71858;PMS5003;59713;50.866;4.324;2023-08-06T00:04:01;1;1;
71858;PMS5003;59713;50.866;4.324;2023-08-06T00:05:01;1;1;
71858;PMS5003;59713;50.866;4.324;2023-08-06T00:06:01;1;1;
71858;PMS5003;59713;50.866;4.324;2023-08-06T00:07:01;2;2;
71858;PMS5003;59713;50.866;4.324;2023-08-06T00:08:01;2;2;
71858;PMS5003;59713;50.866;4.324;2023-08-06T00:09:01;2;2;
71858;PMS5003;59713;50.866;4.324;2023-08-06T00:10:01;2;2;
71858;PMS5003;59713;50.866;4.324;2023-08-06T00:11:01;2;2;
71858;PMS5003;59713;50.866;4.324;2023-08-06T00:11:01;2;2;
71858;PMS5003;59713;50.866;4.324;2023-08-06T00:12:01;2;2;
71858;PMS5003;59713;50.866;4.324;2023-08-06T00:13:01;1;1;
71858;PMS5003;59713;50.866;4.324;2023-08-06T00:14:01;1;1;
71858;PMS5003;59713;50.866;4.324;2023-08-06T00:15:11;1;1;
71858;PMS5003;59713;50.866;4.324;2023-08-06T00:16:09;1;1;
71858;PMS5003;59713;50.866;4.324;2023-08-06T00:17:01;1;1;
71858;PMS5003;59713;50.866;4.324;2023-08-06T00:18:01;1;1;
71858;PMS5003;59713;50.866;4.324;2023-08-06T00:19:01;3;3;
71858;PMS5003;59713;50.866;4.324;2023-08-06T00:20:01;3;3;
71858;PMS5003;59713;50.866;4.324;2023-08-06T00:21:01;3;3;
71858;PMS5003;59713;50.866;4.324;2023-08-06T00:22:01;3;2;
71858;PMS5003;59713;50.866;4.324;2023-08-06T00:23:01;3;2;
71858;PMS5003;59713;50.866;4.324;2023-08-06T00:24:01;3;2;
71858;PMS5003;59713;50.866;4.324;2023-08-06T00:25:01;1;1;
71858;PMS5003;59713;50.866;4.324;2023-08-06T00:26:01;1;1;
71858;PMS5003;59713;50.866;4.324;2023-08-06T00:27:01;1;1;
71858;PMS5003;59713;50.866;4.324;2023-08-06T00:28:01;5;3;
71858;PMS5003;59713;50.866;4.324;2023-08-06T00:29:01;5;3;
71858;PMS5003;59713;50.866;4.324;2023-08-06T00:29:01;5;3;
71858;PMS5003;59713;50.866;4.324;2023-08-06T00:30:01;5;3;
71858;PMS5003;59713;50.866;4.324;2023-08-06T00:31:01;2;2;
71858;PMS5003;59713;50.866;4.324;2023-08-06T00:32:01;2;2;
71858;PMS5003;59713;50.866;4.324;2023-08-06T00:33:01;2;2;
71858;PMS5003;59713;50.866;4.324;2023-08-06T00:34:01;1;1;
71858;PMS5003;59713;50.866;4.324;2023-08-06T00:35:01;1;1;
71858;PMS5003;59713;50.866;4.324;2023-08-06T00:36:01;1;1;
71858;PMS5003;59713;50.866;4.324;2023-08-06T00:37:01;1;1;
71858;PMS5003;59713;50.866;4.324;2023-08-06T00:38:01;1;1;
71858;PMS5003;59713;50.866;4.324;2023-08-06T00:39:01;1;1;
71858;PMS5003;59713;50.866;4.324;2023-08-06T00:39:01;1;1;
71858;PMS5003;59713;50.866;4.324;2023-08-06T00:40:01;2;2;
71858;PMS5003;59713;50.866;4.324;2023-08-06T00:41:01;2;2;
71858;PMS5003;59713;50.866;4.324;2023-08-06T00:42:01;2;2;
71858;PMS5003;59713;50.866;4.324;2023-08-06T00:43:01;2;2;
71858;PMS5003;59713;50.866;4.324;2023-08-06T00:44:01;2;2;
71858;PMS5003;59713;50.866;4.324;2023-08-06T00:45:01;2;2;
71858;PMS5003;59713;50.866;4.324;2023-08-06T00:46:01;3;3;
71858;PMS5003;59713;50.866;4.324;2023-08-06T00:47:01;3;3;
71858;PMS5003;59713;50.866;4.324;2023-08-06T00:48:01;3;3;
71858;PMS5003;59713;50.866;4.324;2023-08-06T00:48:01;3;3;
71858;PMS5003;59713;50.866;4.324;2023-08-06T00:49:01;5;3;
71858;PMS5003;59713;50.866;4.324;2023-08-06T00:50:01;5;3;
71858;PMS5003;59713;50.866;4.324;2023-08-06T00:51:01;5;3;
71858;PMS5003;59713;50.866;4.324;2023-08-06T00:52:01;3;3;
71858;PMS5003;59713;50.866;4.324;2023-08-06T00:53:01;3;3;
71858;PMS5003;59713;50.866;4.324;2023-08-06T00:54:01;3;3;
71858;PMS5003;59713;50.866;4.324;2023-08-06T00:55:01;3;3;
71858;PMS5003;59713;50.866;4.324;2023-08-06T00:56:01;3;3;
71858;PMS5003;59713;50.866;4.324;2023-08-06T00:57:01;3;3;
71858;PMS5003;59713;50.866;4.324;2023-08-06T00:57:01;3;3;
71858;PMS5003;59713;50.866;4.324;2023-08-06T00:58:01;2;2;
71858;PMS5003;59713;50.866;4.324;2023-08-06T00:59:01;2;2;
71858;PMS5003;59713;50.866;4.324;2023-08-06T01:00:02;2;2;
71858;PMS5003;59713;50.866;4.324;2023-08-06T01:01:01;5;5;
71858;PMS5003;59713;50.866;4.324;2023-08-06T01:02:01;5;5;
71858;PMS5003;59713;50.866;4.324;2023-08-06T01:03:01;5;5;
71858;PMS5003;59713;50.866;4.324;2023-08-06T01:04:03;3;3;
71858;PMS5003;59713;50.866;4.324;2023-08-06T01:05:01;3;3;
71858;PMS5003;59713;50.866;4.324;2023-08-06T01:06:01;3;3;
71858;PMS5003;59713;50.866;4.324;2023-08-06T01:06:01;3;3;
71858;PMS5003;59713;50.866;4.324;2023-08-06T01:07:03;3;3;
71858;PMS5003;59713;50.866;4.324;2023-08-06T01:08:06;3;3;
71858;PMS5003;59713;50.866;4.324;2023-08-06T01:09:01;3;3;
71858;PMS5003;59713;50.866;4.324;2023-08-06T01:10:07;4;4;
71858;PMS5003;59713;50.866;4.324;2023-08-06T01:11:05;4;4;
71858;PMS5003;59713;50.866;4.324;2023-08-06T01:12:04;4;4;
71858;PMS5003;59713;50.866;4.324;2023-08-06T01:13:04;5;3;
71858;PMS5003;59713;50.866;4.324;2023-08-06T01:14:02;5;3;
71858;PMS5003;59713;50.866;4.324;2023-08-06T01:15:02;5;3;
71858;PMS5003;59713;50.866;4.324;2023-08-06T01:15:05;5;3;
71858;PMS5003;59713;50.866;4.324;2023-08-06T01:16:02;3;3;
71858;PMS5003;59713;50.866;4.324;2023-08-06T01:17:01;3;3;
71858;PMS5003;59713;50.866;4.324;2023-08-06T01:18:01;3;3;
71858;PMS5003;59713;50.866;4.324;2023-08-06T01:19:01;4;4;
71858;PMS5003;59713;50.866;4.324;2023-08-06T01:20:01;4;4;
71858;PMS5003;59713;50.866;4.324;2023-08-06T01:21:01;4;4;
71858;PMS5003;59713;50.866;4.324;2023-08-06T01:22:01;6;4;
71858;PMS5003;59713;50.866;4.324;2023-08-06T01:23:01;6;4;
71858;PMS5003;59713;50.866;4.324;2023-08-06T01:24:01;6;4;
71858;PMS5003;59713;50.866;4.324;2023-08-06T01:24:01;6;4;
71858;PMS5003;59713;50.866;4.324;2023-08-06T01:25:01;5;5;
71858;PMS5003;59713;50.866;4.324;2023-08-06T01:26:02;5;5;
71858;PMS5003;59713;50.866;4.324;2023-08-06T01:27:03;5;5;
71858;PMS5003;59713;50.866;4.324;2023-08-06T01:28:03;4;4;
71858;PMS5003;59713;50.866;4.324;2023-08-06T01:29:04;4;4;
71858;PMS5003;59713;50.866;4.324;2023-08-06T01:30:02;4;4;
71858;PMS5003;59713;50.866;4.324;2023-08-06T01:31:01;6;6;
71858;PMS5003;59713;50.866;4.324;2023-08-06T01:32:01;6;6;
71858;PMS5003;59713;50.866;4.324;2023-08-06T01:33:02;6;6;
71858;PMS5003;59713;50.866;4.324;2023-08-06T01:33:04;6;6;
71858;PMS5003;59713;50.866;4.324;2023-08-06T01:34:01;4;4;
71858;PMS5003;59713;50.866;4.324;2023-08-06T01:35:02;4;4;
71858;PMS5003;59713;50.866;4.324;2023-08-06T01:36:01;4;4;
71858;PMS5003;59713;50.866;4.324;2023-08-06T01:37:01;6;4;
71858;PMS5003;59713;50.866;4.324;2023-08-06T01:38:01;6;4;
71858;PMS5003;59713;50.866;4.324;2023-08-06T01:39:01;6;4;
71858;PMS5003;59713;50.866;4.324;2023-08-06T01:40:01;4;4;
71858;PMS5003;59713;50.866;4.324;2023-08-06T01:41:01;4;4;
71858;PMS5003;59713;50.866;4.324;2023-08-06T01:42:01;4;4;
71858;PMS5003;59713;50.866;4.324;2023-08-06T01:43:01;5;5;
71858;PMS5003;59713;50.866;4.324;2023-08-06T01:44:01;5;5;
71858;PMS5003;59713;50.866;4.324;2023-08-06T01:45:01;5;5;
71858;PMS5003;59713;50.866;4.324;2023-08-06T01:46:01;4;4;
71858;PMS5003;59713;50.866;4.324;2023-08-06T01:47:01;4;4;
71858;PMS5003;59713;50.866;4.324;2023-08-06T01:48:01;4;4;
71858;PMS5003;59713;50.866;4.324;2023-08-06T01:49:01;5;5;
71858;PMS5003;59713;50.866;4.324;2023-08-06T01:50:01;5;5;
71858;PMS5003;59713;50.866;4.324;2023-08-06T01:51:03;5;5;
71858;PMS5003;59713;50.866;4.324;2023-08-06T01:51:03;5;5;
71858;PMS5003;59713;50.866;4.324;2023-08-06T01:52:01;5;5;
71858;PMS5003;59713;50.866;4.324;2023-08-06T01:53:01;5;5;
71858;PMS5003;59713;50.866;4.324;2023-08-06T01:54:01;5;5;
71858;PMS5003;59713;50.866;4.324;2023-08-06T01:55:01;8;6;
71858;PMS5003;59713;50.866;4.324;2023-08-06T01:56:01;8;6;
71858;PMS5003;59713;50.866;4.324;2023-08-06T01:57:01;8;6;
71858;PMS5003;59713;50.866;4.324;2023-08-06T01:58:01;6;6;
71858;PMS5003;59713;50.866;4.324;2023-08-06T01:59:01;6;6;
71858;PMS5003;59713;50.866;4.324;2023-08-06T02:00:01;6;6;
71858;PMS5003;59713;50.866;4.324;2023-08-06T02:00:01;6;6;
71858;PMS5003;59713;50.866;4.324;2023-08-06T02:01:01;7;6;
71858;PMS5003;59713;50.866;4.324;2023-08-06T02:02:01;7;6;
71858;PMS5003;59713;50.866;4.324;2023-08-06T02:03:01;7;6;
71858;PMS5003;59713;50.866;4.324;2023-08-06T02:04:01;4;4;
71858;PMS5003;59713;50.866;4.324;2023-08-06T02:05:01;4;4;
71858;PMS5003;59713;50.866;4.324;2023-08-06T02:06:01;4;4;
71858;PMS5003;59713;50.866;4.324;2023-08-06T02:07:01;7;5;
71858;PMS5003;59713;50.866;4.324;2023-08-06T02:08:01;7;5;
71858;PMS5003;59713;50.866;4.324;2023-08-06T02:09:01;7;5;
71858;PMS5003;59713;50.866;4.324;2023-08-06T02:09:01;7;5;
71858;PMS5003;59713;50.866;4.324;2023-08-06T02:10:01;4;3;
71858;PMS5003;59713;50.866;4.324;2023-08-06T02:11:01;4;3;
71858;PMS5003;59713;50.866;4.324;2023-08-06T02:12:01;4;3;
71858;PMS5003;59713;50.866;4.324;2023-08-06T02:13:01;4;4;
71858;PMS5003;59713;50.866;4.324;2023-08-06T02:14:01;4;4;
71858;PMS5003;59713;50.866;4.324;2023-08-06T02:15:01;4;4;
71858;PMS5003;59713;50.866;4.324;2023-08-06T02:16:01;2;2;
71858;PMS5003;59713;50.866;4.324;2023-08-06T02:17:01;2;2;
71858;PMS5003;59713;50.866;4.324;2023-08-06T02:18:01;2;2;
71858;PMS5003;59713;50.866;4.324;2023-08-06T02:18:01;2;2;
71858;PMS5003;59713;50.866;4.324;2023-08-06T02:19:03;3;3;
71858;PMS5003;59713;50.866;4.324;2023-08-06T02:20:01;3;3;
71858;PMS5003;59713;50.866;4.324;2023-08-06T02:21:01;3;3;
71858;PMS5003;59713;50.866;4.324;2023-08-06T02:22:01;3;1;
71858;PMS5003;59713;50.866;4.324;2023-08-06T02:23:01;3;1;
71858;PMS5003;59713;50.866;4.324;2023-08-06T02:24:04;3;1;
71858;PMS5003;59713;50.866;4.324;2023-08-06T02:25:03;6;4;
71858;PMS5003;59713;50.866;4.324;2023-08-06T02:26:02;6;4;
71858;PMS5003;59713;50.866;4.324;2023-08-06T02:27:01;6;4;
71858;PMS5003;59713;50.866;4.324;2023-08-06T02:27:01;6;4;
71858;PMS5003;59713;50.866;4.324;2023-08-06T02:28:01;3;3;
71858;PMS5003;59713;50.866;4.324;2023-08-06T02:29:01;3;3;
71858;PMS5003;59713;50.866;4.324;2023-08-06T02:30:02;3;3;
71858;PMS5003;59713;50.866;4.324;2023-08-06T02:31:01;5;2;
71858;PMS5003;59713;50.866;4.324;2023-08-06T02:32:01;5;2;
71858;PMS5003;59713;50.866;4.324;2023-08-06T02:33:01;5;2;
71858;PMS5003;59713;50.866;4.324;2023-08-06T02:34:01;2;2;
71858;PMS5003;59713;50.866;4.324;2023-08-06T02:35:01;2;2;
71858;PMS5003;59713;50.866;4.324;2023-08-06T02:36:02;2;2;
71858;PMS5003;59713;50.866;4.324;2023-08-06T02:36:02;2;2;
71858;PMS5003;59713;50.866;4.324;2023-08-06T02:37:01;1;1;
71858;PMS5003;59713;50.866;4.324;2023-08-06T02:38:01;1;1;
71858;PMS5003;59713;50.866;4.324;2023-08-06T02:39:01;1;1;
71858;PMS5003;59713;50.866;4.324;2023-08-06T02:40:02;2;2;
71858;PMS5003;59713;50.866;4.324;2023-08-06T02:41:02;2;2;
71858;PMS5003;59713;50.866;4.324;2023-08-06T02:42:01;2;2;
71858;PMS5003;59713;50.866;4.324;2023-08-06T02:43:01;2;2;
71858;PMS5003;59713;50.866;4.324;2023-08-06T02:44:01;2;2;
71858;PMS5003;59713;50.866;4.324;2023-08-06T02:45:01;2;2;
71858;PMS5003;59713;50.866;4.324;2023-08-06T02:45:01;2;2;
71858;PMS5003;59713;50.866;4.324;2023-08-06T02:46:01;4;1;
71858;PMS5003;59713;50.866;4.324;2023-08-06T02:47:01;4;1;
71858;PMS5003;59713;50.866;4.324;2023-08-06T02:48:01;4;1;
71858;PMS5003;59713;50.866;4.324;2023-08-06T02:49:01;1;1;
71858;PMS5003;59713;50.866;4.324;2023-08-06T02:50:01;1;1;
71858;PMS5003;59713;50.866;4.324;2023-08-06T02:51:02;1;1;
71858;PMS5003;59713;50.866;4.324;2023-08-06T02:52:01;2;1;
71858;PMS5003;59713;50.866;4.324;2023-08-06T02:53:01;2;1;
71858;PMS5003;59713;50.866;4.324;2023-08-06T02:54:01;2;1;
71858;PMS5003;59713;50.866;4.324;2023-08-06T02:55:01;4;1;
71858;PMS5003;59713;50.866;4.324;2023-08-06T02:55:01;4;1;
71858;PMS5003;59713;50.866;4.324;2023-08-06T02:56:02;4;1;
71858;PMS5003;59713;50.866;4.324;2023-08-06T02:57:01;4;1;
71858;PMS5003;59713;50.866;4.324;2023-08-06T02:58:01;1;1;
71858;PMS5003;59713;50.866;4.324;2023-08-06T02:59:01;1;1;
71858;PMS5003;59713;50.866;4.324;2023-08-06T03:00:01;1;1;
71858;PMS5003;59713;50.866;4.324;2023-08-06T03:01:02;2;2;
71858;PMS5003;59713;50.866;4.324;2023-08-06T03:02:01;2;2;
71858;PMS5003;59713;50.866;4.324;2023-08-06T03:03:01;2;2;
71858;PMS5003;59713;50.866;4.324;2023-08-06T03:04:01;1;1;
71858;PMS5003;59713;50.866;4.324;2023-08-06T03:05:01;1;1;
71858;PMS5003;59713;50.866;4.324;2023-08-06T03:06:01;1;1;
71858;PMS5003;59713;50.866;4.324;2023-08-06T03:07:01;2;2;
71858;PMS5003;59713;50.866;4.324;2023-08-06T03:08:01;2;2;
71858;PMS5003;59713;50.866;4.324;2023-08-06T03:09:01;2;2;
71858;PMS5003;59713;50.866;4.324;2023-08-06T03:10:01;5;2;
71858;PMS5003;59713;50.866;4.324;2023-08-06T03:11:01;5;2;
71858;PMS5003;59713;50.866;4.324;2023-08-06T03:12:01;5;2;
71858;PMS5003;59713;50.866;4.324;2023-08-06T03:13:01;4;4;
71858;PMS5003;59713;50.866;4.324;2023-08-06T03:14:01;4;4;
71858;PMS5003;59713;50.866;4.324;2023-08-06T03:14:01;4;4;
71858;PMS5003;59713;50.866;4.324;2023-08-06T03:15:01;4;4;
71858;PMS5003;59713;50.866;4.324;2023-08-06T03:16:01;6;5;
71858;PMS5003;59713;50.866;4.324;2023-08-06T03:17:01;6;5;
71858;PMS5003;59713;50.866;4.324;2023-08-06T03:18:01;6;5;
71858;PMS5003;59713;50.866;4.324;2023-08-06T03:19:01;5;5;
71858;PMS5003;59713;50.866;4.324;2023-08-06T03:20:01;5;5;
71858;PMS5003;59713;50.866;4.324;2023-08-06T03:21:01;5;5;
71858;PMS5003;59713;50.866;4.324;2023-08-06T03:22:01;6;6;
71858;PMS5003;59713;50.866;4.324;2023-08-06T03:23:01;6;6;
71858;PMS5003;59713;50.866;4.324;2023-08-06T03:23:01;6;6;
71858;PMS5003;59713;50.866;4.324;2023-08-06T03:24:01;6;6;
71858;PMS5003;59713;50.866;4.324;2023-08-06T03:25:02;10;9;
71858;PMS5003;59713;50.866;4.324;2023-08-06T03:26:01;10;9;
71858;PMS5003;59713;50.866;4.324;2023-08-06T03:27:01;10;9;
71858;PMS5003;59713;50.866;4.324;2023-08-06T03:28:01;9;9;
71858;PMS5003;59713;50.866;4.324;2023-08-06T03:29:01;9;9;
71858;PMS5003;59713;50.866;4.324;2023-08-06T03:30:01;9;9;
71858;PMS5003;59713;50.866;4.324;2023-08-06T03:31:02;14;10;
71858;PMS5003;59713;50.866;4.324;2023-08-06T03:32:02;14;10;
71858;PMS5003;59713;50.866;4.324;2023-08-06T03:32:02;14;10;
71858;PMS5003;59713;50.866;4.324;2023-08-06T03:33:01;14;10;
71858;PMS5003;59713;50.866;4.324;2023-08-06T03:34:01;8;8;
71858;PMS5003;59713;50.866;4.324;2023-08-06T03:35:02;8;8;
71858;PMS5003;59713;50.866;4.324;2023-08-06T03:36:03;8;8;
71858;PMS5003;59713;50.866;4.324;2023-08-06T03:37:01;9;9;
71858;PMS5003;59713;50.866;4.324;2023-08-06T03:38:01;9;9;
71858;PMS5003;59713;50.866;4.324;2023-08-06T03:39:01;9;9;
71858;PMS5003;59713;50.866;4.324;2023-08-06T03:40:01;7;7;
71858;PMS5003;59713;50.866;4.324;2023-08-06T03:41:01;7;7;
71858;PMS5003;59713;50.866;4.324;2023-08-06T03:41:01;7;7;
71858;PMS5003;59713;50.866;4.324;2023-08-06T03:42:01;7;7;
71858;PMS5003;59713;50.866;4.324;2023-08-06T03:43:01;12;7;
71858;PMS5003;59713;50.866;4.324;2023-08-06T03:44:01;12;7;
71858;PMS5003;59713;50.866;4.324;2023-08-06T03:45:01;12;7;
71858;PMS5003;59713;50.866;4.324;2023-08-06T03:46:01;3;3;
71858;PMS5003;59713;50.866;4.324;2023-08-06T03:47:01;3;3;
71858;PMS5003;59713;50.866;4.324;2023-08-06T03:48:01;3;3;
71858;PMS5003;59713;50.866;4.324;2023-08-06T03:49:02;3;1;
71858;PMS5003;59713;50.866;4.324;2023-08-06T03:50:02;3;1;
71858;PMS5003;59713;50.866;4.324;2023-08-06T03:51:01;3;1;
71858;PMS5003;59713;50.866;4.324;2023-08-06T03:51:01;3;1;
71858;PMS5003;59713;50.866;4.324;2023-08-06T03:52:01;4;2;
71858;PMS5003;59713;50.866;4.324;2023-08-06T03:53:01;4;2;
71858;PMS5003;59713;50.866;4.324;2023-08-06T03:54:01;4;2;
71858;PMS5003;59713;50.866;4.324;2023-08-06T03:55:01;3;2;
71858;PMS5003;59713;50.866;4.324;2023-08-06T03:56:01;3;2;
71858;PMS5003;59713;50.866;4.324;2023-08-06T03:57:01;3;2;
71858;PMS5003;59713;50.866;4.324;2023-08-06T03:58:01;0;0;
71858;PMS5003;59713;50.866;4.324;2023-08-06T03:59:03;0;0;
71858;PMS5003;59713;50.866;4.324;2023-08-06T04:00:02;0;0;
71858;PMS5003;59713;50.866;4.324;2023-08-06T04:01:02;1;1;
71858;PMS5003;59713;50.866;4.324;2023-08-06T04:01:02;1;1;
71858;PMS5003;59713;50.866;4.324;2023-08-06T04:02:02;1;1;
71858;PMS5003;59713;50.866;4.324;2023-08-06T04:03:01;1;1;
71858;PMS5003;59713;50.866;4.324;2023-08-06T04:04:03;2;0;
71858;PMS5003;59713;50.866;4.324;2023-08-06T04:05:02;2;0;
71858;PMS5003;59713;50.866;4.324;2023-08-06T04:06:02;2;0;
71858;PMS5003;59713;50.866;4.324;2023-08-06T04:07:01;1;0;
71858;PMS5003;59713;50.866;4.324;2023-08-06T04:08:01;1;0;
71858;PMS5003;59713;50.866;4.324;2023-08-06T04:09:01;1;0;
71858;PMS5003;59713;50.866;4.324;2023-08-06T04:10:02;1;1;
71858;PMS5003;59713;50.866;4.324;2023-08-06T04:10:03;1;1;
71858;PMS5003;59713;50.866;4.324;2023-08-06T04:11:01;1;1;
71858;PMS5003;59713;50.866;4.324;2023-08-06T04:12:01;1;1;
71858;PMS5003;59713;50.866;4.324;2023-08-06T04:13:01;0;0;
71858;PMS5003;59713;50.866;4.324;2023-08-06T04:14:01;0;0;
71858;PMS5003;59713;50.866;4.324;2023-08-06T04:15:02;0;0;
71858;PMS5003;59713;50.866;4.324;2023-08-06T04:16:01;1;0;
71858;PMS5003;59713;50.866;4.324;2023-08-06T04:17:01;1;0;
71858;PMS5003;59713;50.866;4.324;2023-08-06T04:18:02;1;0;
71858;PMS5003;59713;50.866;4.324;2023-08-06T04:19:01;2;1;
71858;PMS5003;59713;50.866;4.324;2023-08-06T04:19:01;2;1;
71858;PMS5003;59713;50.866;4.324;2023-08-06T04:20:02;2;1;
71858;PMS5003;59713;50.866;4.324;2023-08-06T04:21:02;2;1;
71858;PMS5003;59713;50.866;4.324;2023-08-06T04:22:01;2;0;
71858;PMS5003;59713;50.866;4.324;2023-08-06T04:23:05;2;0;
71858;PMS5003;59713;50.866;4.324;2023-08-06T04:24:02;2;0;
71858;PMS5003;59713;50.866;4.324;2023-08-06T04:25:02;0;0;
71858;PMS5003;59713;50.866;4.324;2023-08-06T04:26:01;0;0;
71858;PMS5003;59713;50.866;4.324;2023-08-06T04:27:02;0;0;
71858;PMS5003;59713;50.866;4.324;2023-08-06T04:28:01;0;0;
71858;PMS5003;59713;50.866;4.324;2023-08-06T04:29:01;0;0;
71858;PMS5003;59713;50.866;4.324;2023-08-06T04:29:01;0;0;
71858;PMS5003;59713;50.866;4.324;2023-08-06T04:30:02;0;0;
71858;PMS5003;59713;50.866;4.324;2023-08-06T04:31:01;2;2;
71858;PMS5003;59713;50.866;4.324;2023-08-06T04:32:03;2;2;
71858;PMS5003;59713;50.866;4.324;2023-08-06T04:33:01;2;2;
71858;PMS5003;59713;50.866;4.324;2023-08-06T04:34:01;1;1;
71858;PMS5003;59713;50.866;4.324;2023-08-06T04:35:02;1;1;
71858;PMS5003;59713;50.866;4.324;2023-08-06T04:36:02;1;1;
71858;PMS5003;59713;50.866;4.324;2023-08-06T04:37:03;2;2;
71858;PMS5003;59713;50.866;4.324;2023-08-06T04:38:01;2;2;
71858;PMS5003;59713;50.866;4.324;2023-08-06T04:38:01;2;2;
71858;PMS5003;59713;50.866;4.324;2023-08-06T04:39:01;2;2;
71858;PMS5003;59713;50.866;4.324;2023-08-06T04:40:02;1;1;
71858;PMS5003;59713;50.866;4.324;2023-08-06T04:41:03;1;1;
71858;PMS5003;59713;50.866;4.324;2023-08-06T04:42:02;1;1;
71858;PMS5003;59713;50.866;4.324;2023-08-06T04:43:02;2;2;
71858;PMS5003;59713;50.866;4.324;2023-08-06T04:44:02;2;2;
71858;PMS5003;59713;50.866;4.324;2023-08-06T04:45:02;2;2;
71858;PMS5003;59713;50.866;4.324;2023-08-06T04:46:02;5;4;
71858;PMS5003;59713;50.866;4.324;2023-08-06T04:47:02;5;4;
71858;PMS5003;59713;50.866;4.324;2023-08-06T04:48:01;5;4;
71858;PMS5003;59713;50.866;4.324;2023-08-06T04:48:01;5;4;
71858;PMS5003;59713;50.866;4.324;2023-08-06T04:49:01;5;3;
71858;PMS5003;59713;50.866;4.324;2023-08-06T04:50:02;5;3;
71858;PMS5003;59713;50.866;4.324;2023-08-06T04:51:01;5;3;
71858;PMS5003;59713;50.866;4.324;2023-08-06T04:52:02;4;4;
71858;PMS5003;59713;50.866;4.324;2023-08-06T04:53:02;4;4;
71858;PMS5003;59713;50.866;4.324;2023-08-06T04:54:01;4;4;
71858;PMS5003;59713;50.866;4.324;2023-08-06T04:55:02;2;2;
71858;PMS5003;59713;50.866;4.324;2023-08-06T04:56:01;2;2;
71858;PMS5003;59713;50.866;4.324;2023-08-06T04:57:02;2;2;
71858;PMS5003;59713;50.866;4.324;2023-08-06T04:57:02;2;2;
71858;PMS5003;59713;50.866;4.324;2023-08-06T04:58:01;4;4;
71858;PMS5003;59713;50.866;4.324;2023-08-06T04:59:01;4;4;
71858;PMS5003;59713;50.866;4.324;2023-08-06T05:00:02;4;4;
71858;PMS5003;59713;50.866;4.324;2023-08-06T05:01:01;5;3;
71858;PMS5003;59713;50.866;4.324;2023-08-06T05:02:02;5;3;
71858;PMS5003;59713;50.866;4.324;2023-08-06T05:03:02;5;3;
71858;PMS5003;59713;50.866;4.324;2023-08-06T05:04:02;4;4;
71858;PMS5003;59713;50.866;4.324;2023-08-06T05:05:02;4;4;
71858;PMS5003;59713;50.866;4.324;2023-08-06T05:06:02;4;4;
71858;PMS5003;59713;50.866;4.324;2023-08-06T05:06:02;4;4;
71858;PMS5003;59713;50.866;4.324;2023-08-06T05:07:02;4;4;
71858;PMS5003;59713;50.866;4.324;2023-08-06T05:08:02;4;4;
71858;PMS5003;59713;50.866;4.324;2023-08-06T05:09:03;4;4;
71858;PMS5003;59713;50.866;4.324;2023-08-06T05:10:02;5;5;
71858;PMS5003;59713;50.866;4.324;2023-08-06T05:11:02;5;5;
71858;PMS5003;59713;50.866;4.324;2023-08-06T05:12:03;5;5;
71858;PMS5003;59713;50.866;4.324;2023-08-06T05:13:02;3;3;
71858;PMS5003;59713;50.866;4.324;2023-08-06T05:14:01;3;3;
71858;PMS5003;59713;50.866;4.324;2023-08-06T05:15:02;3;3;
71858;PMS5003;59713;50.866;4.324;2023-08-06T05:15:02;3;3;
71858;PMS5003;59713;50.866;4.324;2023-08-06T05:16:02;3;3;
71858;PMS5003;59713;50.866;4.324;2023-08-06T05:17:02;3;3;
71858;PMS5003;59713;50.866;4.324;2023-08-06T05:18:02;3;3;
71858;PMS5003;59713;50.866;4.324;2023-08-06T05:19:02;3;2;
71858;PMS5003;59713;50.866;4.324;2023-08-06T05:20:02;3;2;
71858;PMS5003;59713;50.866;4.324;2023-08-06T05:21:02;3;2;
71858;PMS5003;59713;50.866;4.324;2023-08-06T05:22:02;3;3;
71858;PMS5003;59713;50.866;4.324;2023-08-06T05:23:02;3;3;
71858;PMS5003;59713;50.866;4.324;2023-08-06T05:24:02;3;3;
71858;PMS5003;59713;50.866;4.324;2023-08-06T05:24:02;3;3;
71858;PMS5003;59713;50.866;4.324;2023-08-06T05:25:02;5;3;
71858;PMS5003;59713;50.866;4.324;2023-08-06T05:26:02;5;3;
71858;PMS5003;59713;50.866;4.324;2023-08-06T05:27:02;5;3;
71858;PMS5003;59713;50.866;4.324;2023-08-06T05:28:02;3;3;
71858;PMS5003;59713;50.866;4.324;2023-08-06T05:29:02;3;3;
71858;PMS5003;59713;50.866;4.324;2023-08-06T05:30:02;3;3;
71858;PMS5003;59713;50.866;4.324;2023-08-06T05:31:03;8;4;
71858;PMS5003;59713;50.866;4.324;2023-08-06T05:32:02;8;4;
71858;PMS5003;59713;50.866;4.324;2023-08-06T05:33:02;8;4;
71858;PMS5003;59713;50.866;4.324;2023-08-06T05:33:02;8;4;
71858;PMS5003;59713;50.866;4.324;2023-08-06T05:34:02;5;3;
71858;PMS5003;59713;50.866;4.324;2023-08-06T05:35:02;5;3;
71858;PMS5003;59713;50.866;4.324;2023-08-06T05:36:02;5;3;
71858;PMS5003;59713;50.866;4.324;2023-08-06T05:37:02;6;5;
71858;PMS5003;59713;50.866;4.324;2023-08-06T05:38:02;6;5;
71858;PMS5003;59713;50.866;4.324;2023-08-06T05:39:02;6;5;
71858;PMS5003;59713;50.866;4.324;2023-08-06T05:40:02;6;5;
71858;PMS5003;59713;50.866;4.324;2023-08-06T05:41:02;6;5;
71858;PMS5003;59713;50.866;4.324;2023-08-06T05:42:02;6;5;
71858;PMS5003;59713;50.866;4.324;2023-08-06T05:42:02;6;5;
71858;PMS5003;59713;50.866;4.324;2023-08-06T05:43:02;7;2;
71858;PMS5003;59713;50.866;4.324;2023-08-06T05:44:03;7;2;
71858;PMS5003;59713;50.866;4.324;2023-08-06T05:45:02;7;2;
71858;PMS5003;59713;50.866;4.324;2023-08-06T05:46:02;6;4;
71858;PMS5003;59713;50.866;4.324;2023-08-06T05:47:02;6;4;
71858;PMS5003;59713;50.866;4.324;2023-08-06T05:48:02;6;4;
71858;PMS5003;59713;50.866;4.324;2023-08-06T05:49:02;4;4;
71858;PMS5003;59713;50.866;4.324;2023-08-06T05:50:02;4;4;
71858;PMS5003;59713;50.866;4.324;2023-08-06T05:51:02;4;4;
71858;PMS5003;59713;50.866;4.324;2023-08-06T05:52:02;4;4;
71858;PMS5003;59713;50.866;4.324;2023-08-06T05:53:02;4;4;
71858;PMS5003;59713;50.866;4.324;2023-08-06T05:54:02;4;4;
71858;PMS5003;59713;50.866;4.324;2023-08-06T05:55:02;6;3;
71858;PMS5003;59713;50.866;4.324;2023-08-06T05:56:02;6;3;
71858;PMS5003;59713;50.866;4.324;2023-08-06T05:57:02;6;3;
71858;PMS5003;59713;50.866;4.324;2023-08-06T05:58:02;4;3;
71858;PMS5003;59713;50.866;4.324;2023-08-06T05:59:02;4;3;
71858;PMS5003;59713;50.866;4.324;2023-08-06T06:00:02;4;3;
71858;PMS5003;59713;50.866;4.324;2023-08-06T06:00:02;4;3;
71858;PMS5003;59713;50.866;4.324;2023-08-06T06:01:02;6;3;
71858;PMS5003;59713;50.866;4.324;2023-08-06T06:02:02;6;3;
71858;PMS5003;59713;50.866;4.324;2023-08-06T06:03:02;6;3;
71858;PMS5003;59713;50.866;4.324;2023-08-06T06:04:02;3;3;
71858;PMS5003;59713;50.866;4.324;2023-08-06T06:05:02;3;3;
71858;PMS5003;59713;50.866;4.324;2023-08-06T06:06:02;3;3;
71858;PMS5003;59713;50.866;4.324;2023-08-06T06:07:02;4;4;
71858;PMS5003;59713;50.866;4.324;2023-08-06T06:08:02;4;4;
71858;PMS5003;59713;50.866;4.324;2023-08-06T06:09:02;4;4;
71858;PMS5003;59713;50.866;4.324;2023-08-06T06:10:02;3;3;
71858;PMS5003;59713;50.866;4.324;2023-08-06T06:10:02;3;3;
71858;PMS5003;59713;50.866;4.324;2023-08-06T06:11:02;3;3;
71858;PMS5003;59713;50.866;4.324;2023-08-06T06:12:02;3;3;
71858;PMS5003;59713;50.866;4.324;2023-08-06T06:13:02;5;3;
71858;PMS5003;59713;50.866;4.324;2023-08-06T06:14:02;5;3;